sensor_id;sensor_type;location;lat;lon;timestamp;temperature;humidity
18341;DHT22;9296;48.084;16.352;2022-09-09T08:24:52;35.40;97.60
18341;DHT22;9296;48.084;16.352;2022-09-09T08:34:01;28.70;99.90
18341;DHT22;9296;48.084;16.352;2022-09-09T08:36:33;29.30;99.90
18341;DHT22;9296;48.084;16.352;2022-09-09T16:13:36;29.90;99.90
18341;DHT22;9296;48.084;16.352;2022-09-09T16:16:05;21.40;99.90
18341;DHT22;9296;48.084;16.352;2022-09-09T16:18:38;21.10;99.90
18341;DHT22;9296;48.084;16.352;2022-09-09T16:21:06;21.00;99.90
18341;DHT22;9296;48.084;16.352;2022-09-09T16:23:34;20.90;99.90
18341;DHT22;9296;48.084;16.352;2022-09-09T16:26:01;20.90;99.90
18341;DHT22;9296;48.084;16.352;2022-09-09T16:28:29;20.80;99.90
18341;DHT22;9296;48.084;16.352;2022-09-09T16:30:57;20.80;99.90
18341;DHT22;9296;48.084;16.352;2022-09-09T16:33:24;20.80;99.90
18341;DHT22;9296;48.084;16.352;2022-09-09T16:35:52;20.80;99.90
18341;DHT22;9296;48.084;16.352;2022-09-09T16:38:19;20.80;99.90
18341;DHT22;9296;48.084;16.352;2022-09-09T16:40:46;20.80;99.90
18341;DHT22;9296;48.084;16.352;2022-09-09T16:43:15;20.80;99.90
18341;DHT22;9296;48.084;16.352;2022-09-09T16:46:10;20.70;99.90
18341;DHT22;9296;48.084;16.352;2022-09-09T16:48:37;20.70;99.90
18341;DHT22;9296;48.084;16.352;2022-09-09T16:51:06;20.60;99.90
18341;DHT22;9296;48.084;16.352;2022-09-09T16:53:34;20.60;99.90
18341;DHT22;9296;48.084;16.352;2022-09-09T16:56:05;20.60;99.90
18341;DHT22;9296;48.084;16.352;2022-09-09T16:58:32;20.60;99.90
18341;DHT22;9296;48.084;16.352;2022-09-09T17:04:25;20.50;99.90
18341;DHT22;9296;48.084;16.352;2022-09-09T17:06:54;20.40;99.90
18341;DHT22;9296;48.084;16.352;2022-09-09T17:09:22;20.40;99.90
18341;DHT22;9296;48.084;16.352;2022-09-09T17:11:49;20.40;99.90
18341;DHT22;9296;48.084;16.352;2022-09-09T17:14:54;20.40;99.90
18341;DHT22;9296;48.084;16.352;2022-09-09T17:17:22;20.40;99.90
18341;DHT22;9296;48.084;16.352;2022-09-09T17:19:50;20.40;99.90
18341;DHT22;9296;48.084;16.352;2022-09-09T17:22:17;20.40;99.90
18341;DHT22;9296;48.084;16.352;2022-09-09T17:24:45;20.40;99.90
18341;DHT22;9296;48.084;16.352;2022-09-09T17:27:12;20.30;99.90
18341;DHT22;9296;48.084;16.352;2022-09-09T17:29:39;20.00;99.90
18341;DHT22;9296;48.084;16.352;2022-09-09T17:32:06;19.80;99.90
18341;DHT22;9296;48.084;16.352;2022-09-09T17:34:34;19.70;99.90
18341;DHT22;9296;48.084;16.352;2022-09-09T17:37:02;19.60;99.90
18341;DHT22;9296;48.084;16.352;2022-09-09T17:39:30;19.40;99.90
18341;DHT22;9296;48.084;16.352;2022-09-09T17:41:57;19.30;99.90
18341;DHT22;9296;48.084;16.352;2022-09-09T17:44:24;19.10;99.90
18341;DHT22;9296;48.084;16.352;2022-09-09T17:46:51;19.00;99.90
18341;DHT22;9296;48.084;16.352;2022-09-09T17:49:20;18.90;99.90
18341;DHT22;9296;48.084;16.352;2022-09-09T17:51:47;18.90;99.90
18341;DHT22;9296;48.084;16.352;2022-09-09T17:54:18;18.80;99.90
18341;DHT22;9296;48.084;16.352;2022-09-09T17:56:46;18.90;99.90
18341;DHT22;9296;48.084;16.352;2022-09-09T17:59:15;18.90;99.90
18341;DHT22;9296;48.084;16.352;2022-09-09T18:01:45;18.90;99.90
18341;DHT22;9296;48.084;16.352;2022-09-09T18:04:13;18.90;99.90
18341;DHT22;9296;48.084;16.352;2022-09-09T18:06:42;18.80;99.90
18341;DHT22;9296;48.084;16.352;2022-09-09T18:09:11;18.80;99.90
18341;DHT22;9296;48.084;16.352;2022-09-09T18:11:43;18.90;99.90
18341;DHT22;9296;48.084;16.352;2022-09-09T18:14:12;18.80;99.90
18341;DHT22;9296;48.084;16.352;2022-09-09T18:16:40;18.80;99.90
18341;DHT22;9296;48.084;16.352;2022-09-09T18:19:08;18.70;99.90
18341;DHT22;9296;48.084;16.352;2022-09-09T18:21:37;18.70;99.90
18341;DHT22;9296;48.084;16.352;2022-09-09T18:24:05;18.60;99.90
18341;DHT22;9296;48.084;16.352;2022-09-09T18:26:34;18.60;99.90
18341;DHT22;9296;48.084;16.352;2022-09-09T18:29:05;18.50;99.90
18341;DHT22;9296;48.084;16.352;2022-09-09T18:31:33;18.50;99.90
18341;DHT22;9296;48.084;16.352;2022-09-09T18:34:03;18.50;99.90
18341;DHT22;9296;48.084;16.352;2022-09-09T18:36:33;18.50;99.90
18341;DHT22;9296;48.084;16.352;2022-09-09T18:39:01;18.40;99.90
18341;DHT22;9296;48.084;16.352;2022-09-09T18:41:30;18.60;99.90
18341;DHT22;9296;48.084;16.352;2022-09-09T18:44:00;18.30;99.90
18341;DHT22;9296;48.084;16.352;2022-09-09T18:46:30;18.30;99.90
18341;DHT22;9296;48.084;16.352;2022-09-09T18:48:59;18.30;99.90
18341;DHT22;9296;48.084;16.352;2022-09-09T18:51:28;18.20;99.90
18341;DHT22;9296;48.084;16.352;2022-09-09T18:53:56;18.20;99.90
18341;DHT22;9296;48.084;16.352;2022-09-09T18:56:27;18.20;99.90
18341;DHT22;9296;48.084;16.352;2022-09-09T19:02:45;18.30;99.90
18341;DHT22;9296;48.084;16.352;2022-09-09T19:05:25;18.20;99.90
18341;DHT22;9296;48.084;16.352;2022-09-09T19:07:51;18.20;99.90
18341;DHT22;9296;48.084;16.352;2022-09-09T19:10:18;18.20;99.90
18341;DHT22;9296;48.084;16.352;2022-09-09T19:12:45;18.20;99.90
18341;DHT22;9296;48.084;16.352;2022-09-09T19:15:12;18.20;99.90
18341;DHT22;9296;48.084;16.352;2022-09-09T19:17:41;18.20;99.90
18341;DHT22;9296;48.084;16.352;2022-09-09T19:20:08;18.20;99.90
18341;DHT22;9296;48.084;16.352;2022-09-09T19:22:35;18.20;99.90
18341;DHT22;9296;48.084;16.352;2022-09-09T19:25:02;18.10;99.90
18341;DHT22;9296;48.084;16.352;2022-09-09T19:27:29;18.10;99.90
18341;DHT22;9296;48.084;16.352;2022-09-09T19:29:56;18.20;99.90
18341;DHT22;9296;48.084;16.352;2022-09-09T19:32:23;18.10;99.90
18341;DHT22;9296;48.084;16.352;2022-09-09T19:34:52;18.10;99.90
18341;DHT22;9296;48.084;16.352;2022-09-09T19:37:19;18.00;99.90
18341;DHT22;9296;48.084;16.352;2022-09-09T19:39:47;18.00;99.90
18341;DHT22;9296;48.084;16.352;2022-09-09T19:42:14;18.00;99.90
18341;DHT22;9296;48.084;16.352;2022-09-09T19:45:18;17.90;99.90
18341;DHT22;9296;48.084;16.352;2022-09-09T19:47:46;17.90;99.90
18341;DHT22;9296;48.084;16.352;2022-09-09T19:50:14;17.80;99.90
18341;DHT22;9296;48.084;16.352;2022-09-09T19:52:41;17.90;99.90
18341;DHT22;9296;48.084;16.352;2022-09-09T19:55:08;17.80;99.90
18341;DHT22;9296;48.084;16.352;2022-09-09T19:57:35;17.80;99.90
18341;DHT22;9296;48.084;16.352;2022-09-09T20:00:42;17.80;99.90
18341;DHT22;9296;48.084;16.352;2022-09-09T20:03:09;17.70;99.90
18341;DHT22;9296;48.084;16.352;2022-09-09T20:05:38;17.70;99.90
18341;DHT22;9296;48.084;16.352;2022-09-09T20:08:05;17.70;99.90
18341;DHT22;9296;48.084;16.352;2022-09-09T20:10:31;17.70;99.90
18341;DHT22;9296;48.084;16.352;2022-09-09T20:12:58;18.00;99.90
18341;DHT22;9296;48.084;16.352;2022-09-09T20:15:44;17.70;99.90
18341;DHT22;9296;48.084;16.352;2022-09-09T20:18:11;17.70;99.90
18341;DHT22;9296;48.084;16.352;2022-09-09T20:20:41;17.70;99.90
18341;DHT22;9296;48.084;16.352;2022-09-09T20:23:08;17.60;99.90
18341;DHT22;9296;48.084;16.352;2022-09-09T20:25:35;17.60;99.90
18341;DHT22;9296;48.084;16.352;2022-09-09T20:28:02;17.50;99.90
18341;DHT22;9296;48.084;16.352;2022-09-09T20:33:53;17.40;99.90
18341;DHT22;9296;48.084;16.352;2022-09-09T20:36:24;17.40;99.90
18341;DHT22;9296;48.084;16.352;2022-09-09T20:38:53;17.40;99.90
18341;DHT22;9296;48.084;16.352;2022-09-09T20:41:27;17.40;99.90
18341;DHT22;9296;48.084;16.352;2022-09-09T20:43:59;17.50;99.90
18341;DHT22;9296;48.084;16.352;2022-09-09T20:46:47;17.30;99.90
18341;DHT22;9296;48.084;16.352;2022-09-09T20:49:15;17.30;99.90
18341;DHT22;9296;48.084;16.352;2022-09-09T20:51:44;17.20;99.90
18341;DHT22;9296;48.084;16.352;2022-09-09T20:54:23;17.30;99.90
18341;DHT22;9296;48.084;16.352;2022-09-09T20:56:53;17.30;99.90
18341;DHT22;9296;48.084;16.352;2022-09-09T20:59:21;17.20;99.90
18341;DHT22;9296;48.084;16.352;2022-09-09T21:01:49;17.30;99.90
18341;DHT22;9296;48.084;16.352;2022-09-09T21:04:17;17.20;99.90
18341;DHT22;9296;48.084;16.352;2022-09-09T21:06:52;17.20;99.90
18341;DHT22;9296;48.084;16.352;2022-09-09T21:09:22;17.20;99.90
18341;DHT22;9296;48.084;16.352;2022-09-09T21:11:49;17.20;99.90
18341;DHT22;9296;48.084;16.352;2022-09-09T21:14:19;17.30;99.90
18341;DHT22;9296;48.084;16.352;2022-09-09T21:16:46;17.30;99.90
18341;DHT22;9296;48.084;16.352;2022-09-09T21:19:16;17.30;99.90
18341;DHT22;9296;48.084;16.352;2022-09-09T21:21:44;17.30;99.90
18341;DHT22;9296;48.084;16.352;2022-09-09T21:24:16;17.20;99.90
18341;DHT22;9296;48.084;16.352;2022-09-09T21:26:43;17.20;99.90
18341;DHT22;9296;48.084;16.352;2022-09-09T21:29:10;17.20;99.90
18341;DHT22;9296;48.084;16.352;2022-09-09T21:34:59;17.10;99.90
18341;DHT22;9296;48.084;16.352;2022-09-09T21:37:28;17.10;99.90
18341;DHT22;9296;48.084;16.352;2022-09-09T21:39:58;17.10;99.90
18341;DHT22;9296;48.084;16.352;2022-09-09T21:42:26;17.20;99.90
18341;DHT22;9296;48.084;16.352;2022-09-09T21:48:15;17.20;99.90
18341;DHT22;9296;48.084;16.352;2022-09-09T21:50:44;17.20;99.90
18341;DHT22;9296;48.084;16.352;2022-09-09T21:53:12;17.10;99.90
18341;DHT22;9296;48.084;16.352;2022-09-09T21:55:42;17.20;99.90
18341;DHT22;9296;48.084;16.352;2022-09-09T21:58:12;17.20;99.90
18341;DHT22;9296;48.084;16.352;2022-09-09T22:01:20;17.20;99.90
18341;DHT22;9296;48.084;16.352;2022-09-09T22:03:47;17.10;99.90
18341;DHT22;9296;48.084;16.352;2022-09-09T22:06:16;17.10;99.90
18341;DHT22;9296;48.084;16.352;2022-09-09T22:08:43;17.10;99.90
18341;DHT22;9296;48.084;16.352;2022-09-09T22:11:14;17.10;99.90
18341;DHT22;9296;48.084;16.352;2022-09-09T22:13:42;17.20;99.90
18341;DHT22;9296;48.084;16.352;2022-09-09T22:19:32;17.20;99.90
18341;DHT22;9296;48.084;16.352;2022-09-09T22:21:59;17.20;99.90
18341;DHT22;9296;48.084;16.352;2022-09-09T22:24:26;17.20;99.90
18341;DHT22;9296;48.084;16.352;2022-09-09T22:26:55;17.20;99.90
18341;DHT22;9296;48.084;16.352;2022-09-09T22:29:22;17.30;99.90
18341;DHT22;9296;48.084;16.352;2022-09-09T22:32:08;17.30;99.90
18341;DHT22;9296;48.084;16.352;2022-09-09T22:34:36;17.40;99.90
18341;DHT22;9296;48.084;16.352;2022-09-09T22:37:03;17.40;99.90
18341;DHT22;9296;48.084;16.352;2022-09-09T22:39:30;17.50;99.90
18341;DHT22;9296;48.084;16.352;2022-09-09T22:41:59;17.40;99.90
18341;DHT22;9296;48.084;16.352;2022-09-09T22:44:26;17.30;99.90
18341;DHT22;9296;48.084;16.352;2022-09-09T22:46:55;17.40;99.90
18341;DHT22;9296;48.084;16.352;2022-09-09T22:49:22;17.40;99.90
18341;DHT22;9296;48.084;16.352;2022-09-09T22:51:49;17.30;99.90
18341;DHT22;9296;48.084;16.352;2022-09-09T22:54:16;17.30;99.90
18341;DHT22;9296;48.084;16.352;2022-09-09T22:56:46;17.30;99.90
18341;DHT22;9296;48.084;16.352;2022-09-09T22:59:15;17.40;99.90
18341;DHT22;9296;48.084;16.352;2022-09-09T23:02:00;17.30;99.90
18341;DHT22;9296;48.084;16.352;2022-09-09T23:04:27;17.40;99.90
18341;DHT22;9296;48.084;16.352;2022-09-09T23:06:54;17.40;99.90
18341;DHT22;9296;48.084;16.352;2022-09-09T23:09:22;17.40;99.90
18341;DHT22;9296;48.084;16.352;2022-09-09T23:11:49;17.60;99.90
18341;DHT22;9296;48.084;16.352;2022-09-09T23:14:17;17.40;99.90
18341;DHT22;9296;48.084;16.352;2022-09-09T23:20:08;17.30;99.90
18341;DHT22;9296;48.084;16.352;2022-09-09T23:22:36;17.40;99.90
18341;DHT22;9296;48.084;16.352;2022-09-09T23:25:05;17.30;99.90
18341;DHT22;9296;48.084;16.352;2022-09-09T23:27:32;17.30;99.90
18341;DHT22;9296;48.084;16.352;2022-09-09T23:30:41;17.40;99.90
18341;DHT22;9296;48.084;16.352;2022-09-09T23:33:08;17.40;99.90
18341;DHT22;9296;48.084;16.352;2022-09-09T23:35:35;17.30;99.90
18341;DHT22;9296;48.084;16.352;2022-09-09T23:38:03;17.40;99.90
18341;DHT22;9296;48.084;16.352;2022-09-09T23:40:29;17.50;99.90
18341;DHT22;9296;48.084;16.352;2022-09-09T23:42:56;17.40;99.90
18341;DHT22;9296;48.084;16.352;2022-09-09T23:45:25;17.20;99.90
18341;DHT22;9296;48.084;16.352;2022-09-09T23:47:54;17.30;99.90
18341;DHT22;9296;48.084;16.352;2022-09-09T23:50:21;17.30;99.90
18341;DHT22;9296;48.084;16.352;2022-09-09T23:52:49;17.20;99.90
18341;DHT22;9296;48.084;16.352;2022-09-09T23:55:16;17.20;99.90
18341;DHT22;9296;48.084;16.352;2022-09-09T23:57:43;17.20;99.90
